Ashtabula, Ohio
Current Conditions -  °F | °C
As of 6:53 AM on Sunday 21 Dec 2014 (Local Time) from KHZY Reporting Station
Overcast Overcast  
Wind Chill: 30°   Ceiling: 2100
Heat Index: 30°   Visibility: 8mi
Dew Point: 25°   Wind: 0mph
Humidity: 82%   Direction: NA
Pressure: 30.32"   Gusts: NA
Location:  41.89°N, 80.79°W
Report Text: KHZY 211153Z AUTO 00000KT 8SM OVC021 M01/M04 A3032 RMK AO2 SLP276 T10111039 11011 21017 53009
Loading
Personal Weather Stations






























Interactive Weather Map New forecast layout! Learn more

10-Day Weather Forecast

Advertisements
Track Severe Weather on mobile